Time;durP1;ratioP1;P1;durP2;ratioP2;P2;SDS_P1;SDS_P2;PMS_P1;PMS_P2;Temp;Humidity;BMP_temperature;BMP_pressure;BME280_temperature;BME280_humidity;BME280_pressure;Samples;Min_cycle;Max_cycle;Signal;HPM_P1;HPM_P2
2023/09/23 00:02:19;;;;;;;1.58;0.63;;;;;;;;;;10328948;28;20311;-77
2023/09/23 00:07:21;;;;;;;1.88;0.63;;;;;;;;;;10317979;28;20246;-78
2023/09/23 00:12:22;;;;;;;0.95;0.70;;;;;;;;;;10318060;28;20597;-79
2023/09/23 00:17:23;;;;;;;0.50;0.50;;;;;;;;;;10328131;28;20220;-78
2023/09/23 00:22:24;;;;;;;0.63;0.57;;;;;;;;;;10331123;28;20288;-77
2023/09/23 00:27:27;;;;;;;0.60;0.60;;;;;;;;;;10328956;28;20213;-79
2023/09/23 00:32:28;;;;;;;2.90;0.60;;;;;;;;;;10296090;28;20231;-77
2023/09/23 00:37:30;;;;;;;0.50;0.50;;;;;;;;;;10312910;28;20219;-78
2023/09/23 00:42:31;;;;;;;0.45;0.45;;;;;;;;;;10317497;28;20224;-77
2023/09/23 00:47:32;;;;;;;1.40;0.40;;;;;;;;;;10315547;28;20287;-78
2023/09/23 00:52:33;;;;;;;0.30;0.30;;;;;;;;;;10296599;28;20228;-78
2023/09/23 00:57:35;;;;;;;0.73;0.45;;;;;;;;;;10307323;28;20218;-77
2023/09/23 01:02:37;;;;;;;0.30;0.30;;;;;;;;;;10320666;28;20223;-77
2023/09/23 01:07:38;;;;;;;1.30;0.40;;;;;;;;;;10324033;28;20253;-76
2023/09/23 01:12:40;;;;;;;1.90;0.30;;;;;;;;;;10318026;28;20232;-77
2023/09/23 01:17:40;;;;;;;0.43;0.43;;;;;;;;;;10323550;28;20215;-78
2023/09/23 01:22:42;;;;;;;0.30;0.30;;;;;;;;;;10317931;28;20643;-78
2023/09/23 01:27:43;;;;;;;0.40;0.40;;;;;;;;;;10322619;28;20321;-78
2023/09/23 01:32:48;;;;;;;0.98;0.30;;;;;;;;;;10311738;28;20260;-77
2023/09/23 01:37:50;;;;;;;2.17;0.35;;;;;;;;;;10335338;28;20649;-76
2023/09/23 01:42:53;;;;;;;0.32;0.30;;;;;;;;;;10301708;28;20227;-78
2023/09/23 01:47:56;;;;;;;0.20;0.20;;;;;;;;;;10308962;28;20299;-77
2023/09/23 01:53:01;;;;;;;0.30;0.30;;;;;;;;;;10336113;28;20315;-78
2023/09/23 01:58:02;;;;;;;0.95;0.30;;;;;;;;;;10321595;28;20224;-78
2023/09/23 02:03:03;;;;;;;0.50;0.30;;;;;;;;;;10302064;28;20227;-78
2023/09/23 02:08:04;;;;;;;0.25;0.25;;;;;;;;;;10315677;28;20232;-78
2023/09/23 02:13:05;;;;;;;0.80;0.28;;;;;;;;;;10323900;28;20220;-78
2023/09/23 02:18:06;;;;;;;0.32;0.32;;;;;;;;;;10330480;28;20268;-78
2023/09/23 02:23:08;;;;;;;1.23;0.30;;;;;;;;;;10300394;28;20217;-77
2023/09/23 02:28:10;;;;;;;1.38;0.60;;;;;;;;;;10315900;28;20217;-77
2023/09/23 02:33:12;;;;;;;0.25;0.25;;;;;;;;;;10314903;28;20223;-79
2023/09/23 02:38:14;;;;;;;0.30;0.30;;;;;;;;;;10335281;28;20720;-78
2023/09/23 02:43:17;;;;;;;0.73;0.30;;;;;;;;;;10328985;28;20224;-77
2023/09/23 02:48:18;;;;;;;0.45;0.20;;;;;;;;;;10309735;28;20216;-77
2023/09/23 02:53:19;;;;;;;0.45;0.45;;;;;;;;;;10322680;28;20302;-78
2023/09/23 02:58:22;;;;;;;0.20;0.20;;;;;;;;;;10337778;28;20208;-79
2023/09/23 03:03:24;;;;;;;0.25;0.25;;;;;;;;;;10322050;28;20220;-78
2023/09/23 03:08:25;;;;;;;0.30;0.30;;;;;;;;;;10304480;28;20240;-79
2023/09/23 03:13:27;;;;;;;0.28;0.20;;;;;;;;;;10306254;28;20235;-77
2023/09/23 03:18:29;;;;;;;0.20;0.20;;;;;;;;;;10335346;28;20273;-77
2023/09/23 03:23:30;;;;;;;0.20;0.20;;;;;;;;;;10294472;28;20676;-78
2023/09/23 03:28:31;;;;;;;1.42;0.45;;;;;;;;;;10308314;28;20224;-77
2023/09/23 03:33:32;;;;;;;0.30;0.30;;;;;;;;;;10316967;28;20287;-78
2023/09/23 03:38:34;;;;;;;0.20;0.20;;;;;;;;;;10313302;28;20219;-78
2023/09/23 03:43:35;;;;;;;0.50;0.20;;;;;;;;;;10320182;28;20216;-78
2023/09/23 03:48:37;;;;;;;0.20;0.20;;;;;;;;;;10313902;28;20212;-77
2023/09/23 03:53:38;;;;;;;0.20;0.20;;;;;;;;;;10288192;28;20311;-78
2023/09/23 03:58:40;;;;;;;1.45;0.30;;;;;;;;;;10319052;28;20307;-78
2023/09/23 04:03:41;;;;;;;0.25;0.25;;;;;;;;;;10311457;28;20344;-79
2023/09/23 04:08:42;;;;;;;0.30;0.30;;;;;;;;;;10315544;28;21153;-78
2023/09/23 04:13:44;;;;;;;0.30;0.30;;;;;;;;;;10312349;28;20224;-77
2023/09/23 04:18:51;;;;;;;0.80;0.35;;;;;;;;;;10304862;28;20223;-77
2023/09/23 04:23:52;;;;;;;0.40;0.40;;;;;;;;;;10326807;28;20280;-80
2023/09/23 04:28:53;;;;;;;0.73;0.40;;;;;;;;;;10311047;28;20278;-76
2023/09/23 04:33:54;;;;;;;0.40;0.40;;;;;;;;;;10337537;28;20291;-77
2023/09/23 04:38:55;;;;;;;2.42;0.40;;;;;;;;;;10320325;28;20272;-76
2023/09/23 04:43:57;;;;;;;0.30;0.30;;;;;;;;;;10313332;28;20235;-76
2023/09/23 04:48:58;;;;;;;0.40;0.38;;;;;;;;;;10321421;28;20714;-77
2023/09/23 04:53:59;;;;;;;0.30;0.30;;;;;;;;;;10319842;28;20663;-77
2023/09/23 04:59:00;;;;;;;0.30;0.30;;;;;;;;;;10318165;28;20219;-77
2023/09/23 05:04:02;;;;;;;1.75;0.32;;;;;;;;;;10322829;28;20724;-76
2023/09/23 05:09:04;;;;;;;0.75;0.38;;;;;;;;;;10337630;28;20232;-78
2023/09/23 05:14:05;;;;;;;0.73;0.30;;;;;;;;;;10309877;28;20222;-78
2023/09/23 05:19:07;;;;;;;0.40;0.40;;;;;;;;;;10261790;28;20205;-77
2023/09/23 05:24:10;;;;;;;0.40;0.40;;;;;;;;;;10295020;28;20217;-78
2023/09/23 05:29:11;;;;;;;0.40;0.40;;;;;;;;;;10288040;28;20221;-77
2023/09/23 05:34:12;;;;;;;0.63;0.50;;;;;;;;;;10317794;28;20748;-77
2023/09/23 05:39:19;;;;;;;0.40;0.40;;;;;;;;;;10323209;28;20235;-78
2023/09/23 05:44:20;;;;;;;0.98;0.40;;;;;;;;;;10305242;28;20260;-76
2023/09/23 05:49:22;;;;;;;0.40;0.40;;;;;;;;;;10319177;28;20223;-77
2023/09/23 05:54:24;;;;;;;1.27;0.50;;;;;;;;;;10333796;28;20221;-77
2023/09/23 05:59:25;;;;;;;0.50;0.50;;;;;;;;;;10312187;28;20334;-78
2023/09/23 06:04:26;;;;;;;0.75;0.50;;;;;;;;;;10298040;28;20224;-76
2023/09/23 06:09:27;;;;;;;1.48;0.75;;;;;;;;;;10311131;28;20323;-76
2023/09/23 06:14:28;;;;;;;0.65;0.65;;;;;;;;;;10301021;28;20267;-75
2023/09/23 06:19:32;;;;;;;0.70;0.70;;;;;;;;;;10314357;28;20720;-76
2023/09/23 06:24:35;;;;;;;0.50;0.50;;;;;;;;;;10315819;28;20284;-76
2023/09/23 06:29:36;;;;;;;0.50;0.50;;;;;;;;;;10304382;28;20613;-76
2023/09/23 06:34:37;;;;;;;0.40;0.40;;;;;;;;;;10311901;28;20224;-76
2023/09/23 06:39:38;;;;;;;0.77;0.52;;;;;;;;;;10285725;28;20220;-76
2023/09/23 06:44:39;;;;;;;0.90;0.70;;;;;;;;;;10299292;28;20239;-76
2023/09/23 06:49:40;;;;;;;0.60;0.60;;;;;;;;;;10314684;28;20354;-75
2023/09/23 06:54:41;;;;;;;0.60;0.60;;;;;;;;;;10289053;28;20216;-76
2023/09/23 06:59:43;;;;;;;0.73;0.73;;;;;;;;;;10320727;28;20213;-76
2023/09/23 07:04:44;;;;;;;0.70;0.70;;;;;;;;;;10324063;28;20865;-75
2023/09/23 07:09:45;;;;;;;0.98;0.98;;;;;;;;;;10304683;28;20243;-76
2023/09/23 07:14:46;;;;;;;0.80;0.80;;;;;;;;;;10284986;28;20312;-77
2023/09/23 07:19:47;;;;;;;0.60;0.60;;;;;;;;;;10321976;28;20216;-77
2023/09/23 07:24:48;;;;;;;0.93;0.93;;;;;;;;;;10302082;28;20706;-76
2023/09/23 07:29:49;;;;;;;0.90;0.90;;;;;;;;;;10291458;28;20220;-76
2023/09/23 07:34:50;;;;;;;0.55;0.55;;;;;;;;;;10303615;28;20681;-76
2023/09/23 07:39:51;;;;;;;0.75;0.75;;;;;;;;;;10288181;28;20236;-76
2023/09/23 07:44:52;;;;;;;0.65;0.65;;;;;;;;;;10303826;28;20216;-75
2023/09/23 07:49:53;;;;;;;0.70;0.70;;;;;;;;;;10312417;28;20231;-76
2023/09/23 07:54:54;;;;;;;0.80;0.77;;;;;;;;;;10302237;28;20219;-77
2023/09/23 07:59:55;;;;;;;0.60;0.60;;;;;;;;;;10309595;28;20593;-76
2023/09/23 08:04:56;;;;;;;0.60;0.60;;;;;;;;;;10317449;28;20208;-76
2023/09/23 08:09:58;;;;;;;0.50;0.50;;;;;;;;;;10287533;28;21009;-76
2023/09/23 08:15:00;;;;;;;0.60;0.60;;;;;;;;;;10286216;28;20209;-76
2023/09/23 08:20:02;;;;;;;0.50;0.50;;;;;;;;;;10273104;28;20240;-77
2023/09/23 08:25:04;;;;;;;0.50;0.50;;;;;;;;;;10271415;28;20227;-77
2023/09/23 08:30:05;;;;;;;0.45;0.45;;;;;;;;;;10271268;28;20219;-78
2023/09/23 08:35:07;;;;;;;0.55;0.50;;;;;;;;;;10282036;28;20193;-78
2023/09/23 08:40:10;;;;;;;0.40;0.40;;;;;;;;;;10285416;28;20755;-77
2023/09/23 08:45:11;;;;;;;0.50;0.50;;;;;;;;;;10261664;28;24338;-77
2023/09/23 08:50:12;;;;;;;0.30;0.30;;;;;;;;;;10291021;28;20234;-76
2023/09/23 08:55:15;;;;;;;0.40;0.40;;;;;;;;;;10293090;28;20239;-78
2023/09/23 09:00:18;;;;;;;0.40;0.40;;;;;;;;;;10293261;28;20213;-76
2023/09/23 09:05:20;;;;;;;0.30;0.30;;;;;;;;;;10276631;28;21315;-76
2023/09/23 09:10:25;;;;;;;0.38;0.38;;;;;;;;;;10287088;28;20234;-78
2023/09/23 09:15:26;;;;;;;0.30;0.30;;;;;;;;;;10291156;28;20680;-78
2023/09/23 09:20:27;;;;;;;0.70;0.40;;;;;;;;;;10273204;28;20253;-78
2023/09/23 09:25:31;;;;;;;0.30;0.30;;;;;;;;;;10295000;28;20758;-78
2023/09/23 09:30:32;;;;;;;0.80;0.30;;;;;;;;;;10277976;28;20241;-78
2023/09/23 09:35:33;;;;;;;0.30;0.30;;;;;;;;;;10284016;28;20727;-78
2023/09/23 09:40:34;;;;;;;0.30;0.30;;;;;;;;;;10276624;28;20225;-77
2023/09/23 09:45:40;;;;;;;0.20;0.20;;;;;;;;;;10289003;28;20213;-77
2023/09/23 09:50:41;;;;;;;0.80;0.40;;;;;;;;;;10279902;28;20309;-77
2023/09/23 09:55:43;;;;;;;0.30;0.30;;;;;;;;;;10288157;28;20225;-76
2023/09/23 10:00:47;;;;;;;0.40;0.40;;;;;;;;;;10251989;28;20229;-76
2023/09/23 10:05:51;;;;;;;0.30;0.30;;;;;;;;;;10296490;28;20218;-78
2023/09/23 10:11:02;;;;;;;0.47;0.40;;;;;;;;;;10273956;28;20583;-77
2023/09/23 10:16:11;;;;;;;0.80;0.20;;;;;;;;;;10271801;28;20622;-76
2023/09/23 10:21:23;;;;;;;0.40;0.40;;;;;;;;;;10281794;28;20221;-78
2023/09/23 10:26:28;;;;;;;2.85;0.50;;;;;;;;;;10256189;28;20229;-77
2023/09/23 10:31:30;;;;;;;0.43;0.30;;;;;;;;;;10286674;28;20217;-79
2023/09/23 10:36:32;;;;;;;0.30;0.30;;;;;;;;;;10257035;28;20205;-78
2023/09/23 10:41:37;;;;;;;0.90;0.40;;;;;;;;;;10273422;28;20576;-76
2023/09/23 10:46:38;;;;;;;0.32;0.32;;;;;;;;;;10251015;28;20217;-76
2023/09/23 10:51:39;;;;;;;0.32;0.30;;;;;;;;;;10244236;28;20221;-78
2023/09/23 10:56:41;;;;;;;0.40;0.40;;;;;;;;;;10254167;28;20208;-77
2023/09/23 11:01:45;;;;;;;0.45;0.45;;;;;;;;;;10275286;28;20674;-76
2023/09/23 11:06:46;;;;;;;0.40;0.40;;;;;;;;;;10291732;28;20233;-77
2023/09/23 11:11:47;;;;;;;0.30;0.30;;;;;;;;;;10316040;28;20221;-78
2023/09/23 11:16:49;;;;;;;1.00;0.40;;;;;;;;;;10313340;28;20212;-78
2023/09/23 11:21:50;;;;;;;0.25;0.25;;;;;;;;;;10318497;28;20216;-78
2023/09/23 11:26:51;;;;;;;0.30;0.30;;;;;;;;;;10327811;28;20251;-77
2023/09/23 11:31:52;;;;;;;0.20;0.20;;;;;;;;;;10308852;28;20228;-78
2023/09/23 11:36:53;;;;;;;0.40;0.40;;;;;;;;;;10300711;28;20304;-79
2023/09/23 11:41:57;;;;;;;0.43;0.40;;;;;;;;;;10295874;28;20638;-77
2023/09/23 11:46:58;;;;;;;0.40;0.40;;;;;;;;;;10306888;28;20740;-78
2023/09/23 11:51:59;;;;;;;1.75;0.70;;;;;;;;;;10319325;28;20693;-77
2023/09/23 11:57:00;;;;;;;0.40;0.40;;;;;;;;;;10310463;28;20299;-78
2023/09/23 12:02:01;;;;;;;0.55;0.35;;;;;;;;;;10310507;28;20223;-78
2023/09/23 12:07:02;;;;;;;0.30;0.30;;;;;;;;;;10309017;28;20896;-76
2023/09/23 12:12:04;;;;;;;0.30;0.30;;;;;;;;;;10325379;28;20220;-77
2023/09/23 12:17:06;;;;;;;0.50;0.50;;;;;;;;;;10323665;28;20220;-78
2023/09/23 12:22:12;;;;;;;0.50;0.30;;;;;;;;;;10288042;28;21237;-76
2023/09/23 12:27:13;;;;;;;1.65;0.30;;;;;;;;;;10306717;28;20212;-78
2023/09/23 12:32:14;;;;;;;1.45;0.20;;;;;;;;;;10304169;28;20228;-77
2023/09/23 12:37:16;;;;;;;1.20;0.25;;;;;;;;;;10279271;28;20209;-77
2023/09/23 12:42:17;;;;;;;0.40;0.30;;;;;;;;;;10299031;28;20679;-76
2023/09/23 12:47:18;;;;;;;1.55;0.30;;;;;;;;;;10289487;28;20218;-77
2023/09/23 12:52:19;;;;;;;0.28;0.28;;;;;;;;;;10316481;28;20723;-77
2023/09/23 12:57:20;;;;;;;1.13;0.30;;;;;;;;;;10332684;28;20311;-76
2023/09/23 13:02:21;;;;;;;1.00;0.20;;;;;;;;;;10330606;28;20251;-76
2023/09/23 13:07:22;;;;;;;0.85;0.20;;;;;;;;;;10316270;28;20220;-77
2023/09/23 13:12:23;;;;;;;0.40;0.40;;;;;;;;;;10314785;28;20694;-76
2023/09/23 13:17:24;;;;;;;0.30;0.30;;;;;;;;;;10312860;28;20213;-77
2023/09/23 13:22:25;;;;;;;0.30;0.30;;;;;;;;;;10302617;28;20223;-75
2023/09/23 13:27:26;;;;;;;0.35;0.35;;;;;;;;;;10291969;28;20355;-74
2023/09/23 13:32:28;;;;;;;1.35;0.20;;;;;;;;;;10304063;28;20300;-74
2023/09/23 13:37:29;;;;;;;0.22;0.20;;;;;;;;;;10302268;28;20296;-74
2023/09/23 13:42:31;;;;;;;0.50;0.30;;;;;;;;;;10291782;28;20224;-75
2023/09/23 13:47:33;;;;;;;0.40;0.30;;;;;;;;;;10312172;28;20290;-75
2023/09/23 13:52:34;;;;;;;0.47;0.47;;;;;;;;;;10303151;28;20219;-75
2023/09/23 13:57:36;;;;;;;0.30;0.30;;;;;;;;;;10300068;28;20208;-75
2023/09/23 14:02:39;;;;;;;2.42;0.40;;;;;;;;;;10320943;28;20938;-76
2023/09/23 14:07:40;;;;;;;1.20;0.40;;;;;;;;;;10300639;28;20893;-75
2023/09/23 14:12:41;;;;;;;0.45;0.40;;;;;;;;;;10263128;28;20214;-75
2023/09/23 14:17:42;;;;;;;0.30;0.30;;;;;;;;;;10281828;28;20703;-76
2023/09/23 14:22:45;;;;;;;0.73;0.47;;;;;;;;;;10282038;28;20317;-78
2023/09/23 14:27:46;;;;;;;1.25;0.22;;;;;;;;;;10265024;28;20214;-77
2023/09/23 14:32:47;;;;;;;0.45;0.20;;;;;;;;;;10263728;28;20221;-78
2023/09/23 14:37:48;;;;;;;0.20;0.20;;;;;;;;;;10260606;28;21287;-78
2023/09/23 14:42:49;;;;;;;0.15;0.10;;;;;;;;;;10233591;28;20466;-78
2023/09/23 14:47:51;;;;;;;0.30;0.20;;;;;;;;;;10260652;28;20210;-79
2023/09/23 14:52:52;;;;;;;0.75;0.28;;;;;;;;;;10245291;28;20646;-79
2023/09/23 14:57:54;;;;;;;0.47;0.20;;;;;;;;;;10271995;28;20212;-78
2023/09/23 15:02:55;;;;;;;0.82;0.30;;;;;;;;;;10252845;28;20247;-79
2023/09/23 15:07:57;;;;;;;1.02;0.30;;;;;;;;;;10282206;28;20229;-79
2023/09/23 15:12:59;;;;;;;0.40;0.40;;;;;;;;;;10256255;28;20332;-79
2023/09/23 15:18:00;;;;;;;1.35;0.30;;;;;;;;;;10249052;28;20260;-80
2023/09/23 15:23:01;;;;;;;1.20;0.40;;;;;;;;;;10245769;28;20225;-78
2023/09/23 15:28:05;;;;;;;0.63;0.40;;;;;;;;;;10286660;28;20718;-79
2023/09/23 15:33:06;;;;;;;2.47;0.52;;;;;;;;;;10280997;28;20217;-79
2023/09/23 15:38:07;;;;;;;0.93;0.30;;;;;;;;;;10268237;28;20206;-79
2023/09/23 15:43:08;;;;;;;0.40;0.40;;;;;;;;;;10286016;28;20254;-79
2023/09/23 15:48:09;;;;;;;2.25;0.40;;;;;;;;;;10261602;28;20700;-79
2023/09/23 15:53:10;;;;;;;0.40;0.40;;;;;;;;;;10259813;28;20601;-79
2023/09/23 15:58:11;;;;;;;0.40;0.40;;;;;;;;;;10257359;28;20262;-77
2023/09/23 16:03:12;;;;;;;0.65;0.60;;;;;;;;;;10280647;28;20219;-78
2023/09/23 16:08:13;;;;;;;0.73;0.40;;;;;;;;;;10257756;28;20826;-79
2023/09/23 16:13:14;;;;;;;0.55;0.55;;;;;;;;;;10281768;28;20224;-78
2023/09/23 16:18:15;;;;;;;1.77;0.32;;;;;;;;;;10295207;28;20208;-79
2023/09/23 16:23:17;;;;;;;0.25;0.20;;;;;;;;;;10311398;28;20752;-80
2023/09/23 16:28:18;;;;;;;0.50;0.50;;;;;;;;;;10322400;28;20213;-79
2023/09/23 16:33:19;;;;;;;0.43;0.43;;;;;;;;;;10275658;28;20585;-78
2023/09/23 16:38:20;;;;;;;0.50;0.50;;;;;;;;;;10285042;28;20212;-79
2023/09/23 16:43:21;;;;;;;6.03;0.73;;;;;;;;;;10293897;28;20865;-78
2023/09/23 16:48:23;;;;;;;0.50;0.50;;;;;;;;;;10320653;28;20212;-79
2023/09/23 16:53:24;;;;;;;0.70;0.70;;;;;;;;;;10291760;28;20224;-79
2023/09/23 16:58:25;;;;;;;0.90;0.40;;;;;;;;;;10315162;28;20231;-80
2023/09/23 17:03:27;;;;;;;0.40;0.40;;;;;;;;;;10284505;28;20781;-79
2023/09/23 17:08:28;;;;;;;0.63;0.40;;;;;;;;;;10325087;28;20308;-78
2023/09/23 17:13:30;;;;;;;0.60;0.60;;;;;;;;;;10327713;28;20779;-80
2023/09/23 17:18:31;;;;;;;1.50;0.40;;;;;;;;;;10306141;28;20223;-80
2023/09/23 17:23:32;;;;;;;0.68;0.63;;;;;;;;;;10310410;28;20213;-78
2023/09/23 17:28:34;;;;;;;0.50;0.50;;;;;;;;;;10304305;28;20324;-78
2023/09/23 17:33:35;;;;;;;0.70;0.70;;;;;;;;;;10302438;28;20209;-78
2023/09/23 17:38:36;;;;;;;1.67;0.60;;;;;;;;;;10276450;28;20212;-82
2023/09/23 17:43:37;;;;;;;0.63;0.63;;;;;;;;;;10312820;28;20250;-77
2023/09/23 17:48:38;;;;;;;1.25;1.25;;;;;;;;;;10307663;28;20216;-80
2023/09/23 17:53:39;;;;;;;0.80;0.80;;;;;;;;;;10271139;28;20731;-78
2023/09/23 17:58:41;;;;;;;0.60;0.60;;;;;;;;;;10295864;28;20210;-79
2023/09/23 18:03:42;;;;;;;1.10;1.00;;;;;;;;;;10281983;28;20291;-78
2023/09/23 18:08:43;;;;;;;1.13;1.13;;;;;;;;;;10282398;28;20777;-78
2023/09/23 18:13:44;;;;;;;0.85;0.85;;;;;;;;;;10305512;28;20213;-77
2023/09/23 18:18:46;;;;;;;1.25;0.98;;;;;;;;;;10314788;28;20352;-78
2023/09/23 18:23:47;;;;;;;1.08;1.08;;;;;;;;;;10260223;28;20834;-79
2023/09/23 18:28:48;;;;;;;0.60;0.60;;;;;;;;;;10304482;28;20746;-80
2023/09/23 18:33:49;;;;;;;0.80;0.80;;;;;;;;;;10278545;28;20213;-80
2023/09/23 18:38:51;;;;;;;1.23;0.95;;;;;;;;;;10301885;28;20225;-78
2023/09/23 18:43:53;;;;;;;1.05;1.05;;;;;;;;;;10296965;28;20226;-78
2023/09/23 18:48:54;;;;;;;1.23;1.20;;;;;;;;;;10268194;28;20210;-78
2023/09/23 18:53:55;;;;;;;0.90;0.90;;;;;;;;;;10308617;28;20213;-76
2023/09/23 18:58:56;;;;;;;2.70;1.27;;;;;;;;;;10279072;28;20267;-77
2023/09/23 19:03:57;;;;;;;1.67;1.08;;;;;;;;;;10259336;28;20229;-78
2023/09/23 19:08:58;;;;;;;1.13;1.13;;;;;;;;;;10256049;28;20268;-77
2023/09/23 19:14:00;;;;;;;1.85;1.23;;;;;;;;;;10300195;28;20223;-79
2023/09/23 19:19:01;;;;;;;2.30;1.52;;;;;;;;;;10294427;28;20220;-79
2023/09/23 19:24:02;;;;;;;3.42;1.30;;;;;;;;;;10299688;28;20272;-79
2023/09/23 19:29:03;;;;;;;1.02;1.02;;;;;;;;;;10277005;28;20607;-79
2023/09/23 19:34:04;;;;;;;1.10;1.10;;;;;;;;;;10253858;28;20233;-77
2023/09/23 19:39:06;;;;;;;1.02;1.02;;;;;;;;;;10280162;28;20292;-79
2023/09/23 19:44:07;;;;;;;1.48;1.40;;;;;;;;;;10285395;28;20952;-79
2023/09/23 19:49:08;;;;;;;1.63;1.42;;;;;;;;;;10286901;28;20217;-78
2023/09/23 19:54:09;;;;;;;1.13;1.13;;;;;;;;;;10266488;28;20690;-80
2023/09/23 19:59:10;;;;;;;3.47;3.20;;;;;;;;;;10286671;28;20361;-80
2023/09/23 20:04:12;;;;;;;3.97;2.78;;;;;;;;;;10294311;28;20876;-79
2023/09/23 20:09:13;;;;;;;1.88;1.77;;;;;;;;;;10316035;28;20832;-80
2023/09/23 20:14:15;;;;;;;1.10;1.10;;;;;;;;;;10275710;28;20221;-80
2023/09/23 20:19:16;;;;;;;0.90;0.90;;;;;;;;;;10322041;28;20208;-80
2023/09/23 20:24:17;;;;;;;0.90;0.90;;;;;;;;;;10322655;28;20266;-79
2023/09/23 20:29:18;;;;;;;0.70;0.70;;;;;;;;;;10316024;28;20220;-79
2023/09/23 20:34:19;;;;;;;3.63;0.82;;;;;;;;;;10305076;28;20555;-78
2023/09/23 20:39:20;;;;;;;0.80;0.80;;;;;;;;;;10306208;28;20219;-80
2023/09/23 20:44:21;;;;;;;1.15;0.90;;;;;;;;;;10319286;28;20220;-78
2023/09/23 20:49:23;;;;;;;0.60;0.60;;;;;;;;;;10299292;28;20928;-80
2023/09/23 20:54:24;;;;;;;0.80;0.80;;;;;;;;;;10308087;28;21074;-79
2023/09/23 20:59:28;;;;;;;0.63;0.63;;;;;;;;;;10287376;28;20216;-80
2023/09/23 21:04:29;;;;;;;0.60;0.60;;;;;;;;;;10322083;28;20589;-79
2023/09/23 21:09:30;;;;;;;0.73;0.73;;;;;;;;;;10289180;28;20231;-79
2023/09/23 21:14:31;;;;;;;1.27;0.60;;;;;;;;;;10329271;28;20239;-77
2023/09/23 21:19:32;;;;;;;0.60;0.60;;;;;;;;;;10324511;28;20296;-80
2023/09/23 21:24:33;;;;;;;0.57;0.57;;;;;;;;;;10325154;28;20308;-78
2023/09/23 21:29:34;;;;;;;1.95;0.80;;;;;;;;;;10313151;28;20702;-79
2023/09/23 21:34:35;;;;;;;1.20;0.80;;;;;;;;;;10325345;28;20271;-79
2023/09/23 21:39:36;;;;;;;1.55;0.70;;;;;;;;;;10308945;28;20747;-80
2023/09/23 21:44:39;;;;;;;0.60;0.60;;;;;;;;;;10309591;28;20212;-78
2023/09/23 21:49:40;;;;;;;3.20;0.50;;;;;;;;;;10307296;28;20220;-78
2023/09/23 21:54:41;;;;;;;1.90;0.70;;;;;;;;;;10301773;28;20216;-79
2023/09/23 21:59:43;;;;;;;1.63;0.70;;;;;;;;;;10308066;28;20209;-79
2023/09/23 22:04:47;;;;;;;2.65;0.65;;;;;;;;;;10325723;28;20231;-79
2023/09/23 22:09:49;;;;;;;1.38;0.60;;;;;;;;;;10290457;28;20232;-80
2023/09/23 22:14:50;;;;;;;1.15;0.68;;;;;;;;;;10291795;28;20244;-81
2023/09/23 22:19:51;;;;;;;0.70;0.55;;;;;;;;;;10293025;28;20213;-78
2023/09/23 22:24:53;;;;;;;0.60;0.60;;;;;;;;;;10323418;28;20217;-80
2023/09/23 22:29:54;;;;;;;0.70;0.70;;;;;;;;;;10310212;28;20617;-79
2023/09/23 22:34:56;;;;;;;0.90;0.88;;;;;;;;;;10306217;28;20315;-80
2023/09/23 22:39:57;;;;;;;0.88;0.88;;;;;;;;;;10319154;28;20239;-80
2023/09/23 22:44:58;;;;;;;1.75;0.80;;;;;;;;;;10319427;28;20698;-80
2023/09/23 22:49:59;;;;;;;0.60;0.60;;;;;;;;;;10307209;28;20240;-79
2023/09/23 22:55:01;;;;;;;0.82;0.60;;;;;;;;;;10288194;28;20220;-79
2023/09/23 23:00:02;;;;;;;1.00;0.85;;;;;;;;;;10310388;28;20204;-80
2023/09/23 23:05:04;;;;;;;41.42;1.80;;;;;;;;;;10304972;28;20197;-80
2023/09/23 23:10:07;;;;;;;0.20;0.20;;;;;;;;;;10332435;28;20268;-80
2023/09/23 23:15:10;;;;;;;0.38;0.38;;;;;;;;;;10321132;28;20223;-80
2023/09/23 23:20:21;;;;;;;0.25;0.25;;;;;;;;;;10310581;28;20181;-80
2023/09/23 23:25:23;;;;;;;0.63;0.50;;;;;;;;;;10344301;28;20180;-81
2023/09/23 23:30:24;;;;;;;0.98;0.98;;;;;;;;;;10332036;28;20220;-79
2023/09/23 23:35:26;;;;;;;1.10;1.10;;;;;;;;;;10300635;28;22223;-81
2023/09/23 23:40:28;;;;;;;1.23;1.10;;;;;;;;;;10323578;28;20228;-81
2023/09/23 23:45:30;;;;;;;0.93;0.90;;;;;;;;;;10296106;28;20299;-81
2023/09/23 23:50:31;;;;;;;5.40;0.90;;;;;;;;;;10328345;28;20221;-81
2023/09/23 23:55:32;;;;;;;1.17;1.17;;;;;;;;;;10335252;28;20226;-80
